aviador You're here:

KVTI Decoded Metar

VINTON in IA, USA
Report Time2017-08-22 03:15:00
UTC Time2017-08-22 03:18:30
Flight Rules vfr VFR
WindCalm
Visibility9999 m
Phenomena:N/A
Clouds:N/A
CeilingNone
Temp19°C (ISA +6)
Dew Point19°C (100% RH)
QNH1013 hPa
Density Alt1,795 ft
Elevation837 ft
Report Wrong Elevation
Raw Report
KVTI 220315Z AUTO 00000KT 10SM CLR 19/19 A2992 RMK AO2
T01880187=

Extra information for KVTI:More info

Metar Taf Metar & Taf Last 4 Metars F.Rules Stats Wind Profile Meteogram Temp Stats Airport Information Weather charts Add Link Nearby VenuesMetar ALERT Operation Metar Decoded Social comments

AIRNAV info for KVTI